Time;durP1;ratioP1;P1;durP2;ratioP2;P2;SDS_P1;SDS_P2;PMS_P1;PMS_P2;Temp;Humidity;BMP_temperature;BMP_pressure;BME280_temperature;BME280_humidity;BME280_pressure;Samples;Min_cycle;Max_cycle;Signal;HPM_P1;HPM_P2
2024/02/13 00:00:52;;;;;;;9.10;4.70;;;5.00;99.90;;;;;;5003265;28;20027;-66
2024/02/13 00:03:18;;;;;;;7.38;4.57;;;5.00;99.90;;;;;;4992537;28;20028;-66
2024/02/13 00:05:43;;;;;;;7.40;4.88;;;5.00;99.90;;;;;;5026698;28;20501;-64
2024/02/13 00:08:10;;;;;;;8.88;4.70;;;4.90;99.90;;;;;;4973994;28;20387;-64
2024/02/13 00:10:36;;;;;;;8.38;4.70;;;4.90;99.90;;;;;;4990135;28;20069;-64
2024/02/13 00:13:02;;;;;;;9.57;4.80;;;4.90;99.90;;;;;;4983736;28;20427;-64
2024/02/13 00:15:27;;;;;;;8.15;4.45;;;4.90;99.90;;;;;;5007759;28;21631;-64
2024/02/13 00:17:54;;;;;;;10.55;4.85;;;4.90;99.90;;;;;;5017423;28;21946;-64
2024/02/13 00:20:20;;;;;;;12.57;4.35;;;4.90;99.90;;;;;;5010594;28;20055;-63
2024/02/13 00:22:47;;;;;;;12.40;5.07;;;4.90;99.90;;;;;;4961440;28;20474;-63
2024/02/13 00:25:13;;;;;;;14.02;5.45;;;4.90;99.90;;;;;;4995741;28;20031;-62
2024/02/13 00:27:38;;;;;;;10.63;4.90;;;4.90;99.90;;;;;;5006712;28;21613;-62
2024/02/13 00:30:05;;;;;;;7.72;4.50;;;4.90;99.90;;;;;;5048701;28;20028;-63
2024/02/13 00:32:31;;;;;;;12.13;5.47;;;4.90;99.90;;;;;;4978036;28;20036;-63
2024/02/13 00:35:03;;;;;;;9.55;5.18;;;4.90;99.90;;;;;;5020272;28;20065;-63
2024/02/13 00:37:28;;;;;;;11.80;5.68;;;4.90;99.90;;;;;;4972594;28;20085;-63
2024/02/13 00:39:54;;;;;;;11.18;6.00;;;4.90;99.90;;;;;;4993683;28;20397;-64
2024/02/13 00:42:19;;;;;;;14.88;6.10;;;4.90;99.90;;;;;;5004765;28;20027;-64
2024/02/13 00:44:45;;;;;;;15.38;5.47;;;4.90;99.90;;;;;;4998589;28;20039;-62
2024/02/13 00:47:11;;;;;;;10.68;5.30;;;4.90;99.90;;;;;;5001376;28;20629;-63
2024/02/13 00:49:37;;;;;;;12.38;6.15;;;4.90;99.90;;;;;;4978245;28;20031;-63
2024/02/13 00:52:03;;;;;;;12.23;5.45;;;4.90;99.90;;;;;;4966365;28;20027;-63
2024/02/13 00:54:29;;;;;;;12.55;5.68;;;4.90;99.90;;;;;;4998509;28;22310;-63
2024/02/13 00:56:55;;;;;;;9.52;5.43;;;4.90;99.90;;;;;;4977582;28;20926;-64
2024/02/13 00:59:21;;;;;;;11.70;5.32;;;4.90;99.90;;;;;;4991886;28;20023;-63
2024/02/13 01:01:46;;;;;;;8.93;4.45;;;4.90;99.90;;;;;;4946449;28;20524;-63
2024/02/13 01:04:12;;;;;;;7.82;4.68;;;4.90;99.90;;;;;;4985101;28;20478;-63
2024/02/13 01:06:38;;;;;;;10.68;5.07;;;4.90;99.90;;;;;;4997511;28;21588;-63
2024/02/13 01:09:05;;;;;;;11.07;5.95;;;4.90;99.90;;;;;;5009067;28;20050;-63
2024/02/13 01:11:35;;;;;;;13.20;6.05;;;4.80;99.90;;;;;;4998614;28;20114;-63
2024/02/13 01:14:07;;;;;;;6.85;5.35;;;4.80;99.90;;;;;;4988944;28;20114;-63
2024/02/13 01:16:33;;;;;;;9.52;4.90;;;4.80;99.90;;;;;;4986148;28;20031;-64
2024/02/13 01:19:00;;;;;;;12.23;4.50;;;4.80;99.90;;;;;;4956852;28;20036;-63
2024/02/13 01:21:25;;;;;;;9.23;4.57;;;4.70;99.90;;;;;;4989700;28;20629;-63
2024/02/13 01:23:51;;;;;;;10.75;4.70;;;4.70;99.90;;;;;;4991738;28;21776;-63
2024/02/13 01:26:21;;;;;;;8.20;4.13;;;4.60;99.90;;;;;;5018390;28;20115;-64
2024/02/13 01:28:47;;;;;;;7.03;3.83;;;4.50;99.90;;;;;;4922610;28;20048;-63
2024/02/13 01:31:13;;;;;;;12.57;4.03;;;4.50;99.90;;;;;;4969471;28;20633;-63
2024/02/13 01:33:40;;;;;;;9.15;4.07;;;4.40;99.90;;;;;;4992286;28;20036;-63
2024/02/13 01:36:06;;;;;;;5.60;3.42;;;4.40;99.90;;;;;;5039293;28;20202;-62
2024/02/13 01:38:32;;;;;;;9.85;3.60;;;4.30;99.90;;;;;;5011777;28;20047;-68
2024/02/13 01:40:58;;;;;;;5.78;3.75;;;4.30;99.90;;;;;;4992088;28;20032;-63
2024/02/13 01:43:24;;;;;;;6.00;3.97;;;4.20;99.90;;;;;;4984865;28;20154;-62
2024/02/13 01:45:55;;;;;;;7.60;3.55;;;4.10;99.90;;;;;;4986418;28;20453;-63
2024/02/13 01:48:22;;;;;;;8.40;4.15;;;4.10;99.90;;;;;;4991226;28;20582;-64
2024/02/13 01:50:49;;;;;;;6.40;3.17;;;4.10;99.90;;;;;;5048422;28;20031;-64
2024/02/13 01:53:18;;;;;;;5.75;4.30;;;4.00;99.90;;;;;;5012512;28;20094;-63
2024/02/13 01:55:45;;;;;;;8.23;4.28;;;4.00;99.90;;;;;;4996531;28;20457;-63
2024/02/13 01:58:12;;;;;;;7.72;4.03;;;3.90;99.90;;;;;;4949980;28;20112;-64
2024/02/13 02:00:39;;;;;;;7.07;4.07;;;3.90;99.90;;;;;;5014968;28;20040;-63
2024/02/13 02:03:05;;;;;;;5.07;3.63;;;3.80;99.90;;;;;;5018342;28;20024;-63
2024/02/13 02:05:31;;;;;;;7.43;4.45;;;3.80;99.90;;;;;;5047544;28;20039;-63
2024/02/13 02:07:58;;;;;;;8.82;3.97;;;3.80;99.90;;;;;;5022323;28;21249;-63
2024/02/13 02:10:24;;;;;;;5.25;3.40;;;3.70;99.90;;;;;;4982716;28;20024;-62
2024/02/13 02:12:50;;;;;;;10.85;4.03;;;3.80;99.90;;;;;;5018283;28;20029;-62
2024/02/13 02:15:19;;;;;;;6.13;3.58;;;3.70;99.90;;;;;;5015430;28;20033;-63
2024/02/13 02:17:54;;;;;;;8.00;3.97;;;3.80;99.90;;;;;;4992073;28;20067;-63
2024/02/13 02:20:22;;;;;;;4.70;3.42;;;3.70;99.90;;;;;;4995562;28;20032;-63
2024/02/13 02:22:48;;;;;;;5.35;3.70;;;3.70;99.90;;;;;;4968764;28;20024;-63
2024/02/13 02:25:18;;;;;;;6.60;3.60;;;3.80;99.90;;;;;;4929449;28;21931;-63
2024/02/13 02:27:44;;;;;;;5.75;3.95;;;3.80;99.90;;;;;;4972588;28;20024;-63
2024/02/13 02:30:10;;;;;;;7.22;4.28;;;3.70;99.90;;;;;;5028981;28;20024;-65
2024/02/13 02:32:36;;;;;;;7.43;3.70;;;3.70;99.90;;;;;;4948687;28;20629;-65
2024/02/13 02:35:02;;;;;;;7.20;3.63;;;3.70;99.90;;;;;;5065506;28;20055;-64
2024/02/13 02:37:28;;;;;;;6.35;3.42;;;3.70;99.90;;;;;;5037993;28;21937;-63
2024/02/13 02:39:53;;;;;;;6.32;3.88;;;3.60;99.90;;;;;;5032272;28;20445;-64
2024/02/13 02:42:21;;;;;;;7.55;4.05;;;3.60;99.90;;;;;;5026151;28;20555;-63
2024/02/13 02:44:46;;;;;;;11.20;4.10;;;3.60;99.90;;;;;;5024910;28;20123;-63
2024/02/13 02:47:12;;;;;;;8.45;3.78;;;3.50;99.90;;;;;;5053516;28;22186;-63
2024/02/13 02:49:38;;;;;;;5.70;3.58;;;3.50;99.90;;;;;;5037057;28;20020;-62
2024/02/13 02:52:07;;;;;;;11.50;3.85;;;3.50;99.90;;;;;;5028445;28;20509;-62
2024/02/13 02:54:39;;;;;;;7.47;4.15;;;3.50;99.90;;;;;;5019307;28;20024;-63
2024/02/13 02:57:05;;;;;;;9.13;3.88;;;3.50;99.90;;;;;;5015726;28;20047;-63
2024/02/13 02:59:34;;;;;;;7.38;4.05;;;3.60;99.90;;;;;;5050974;28;20213;-63
2024/02/13 03:02:01;;;;;;;7.03;4.55;;;3.60;99.90;;;;;;5032330;28;20403;-64
2024/02/13 03:04:27;;;;;;;5.60;3.45;;;3.60;99.90;;;;;;5033778;28;20780;-64
2024/02/13 03:06:52;;;;;;;4.13;3.72;;;3.60;99.90;;;;;;5024541;28;20024;-63
2024/02/13 03:09:18;;;;;;;6.28;3.42;;;3.60;99.90;;;;;;5011825;28;20541;-64
2024/02/13 03:11:43;;;;;;;6.60;3.90;;;3.70;99.90;;;;;;5009626;28;20107;-63
2024/02/13 03:14:09;;;;;;;10.25;4.10;;;3.70;99.90;;;;;;5047962;28;20120;-63
2024/02/13 03:16:36;;;;;;;6.53;3.58;;;3.70;99.90;;;;;;5030834;28;20098;-63
2024/02/13 03:19:05;;;;;;;6.03;3.67;;;3.70;99.90;;;;;;5020485;28;20031;-63
2024/02/13 03:21:32;;;;;;;7.50;4.07;;;3.70;99.90;;;;;;5011035;28;20071;-64
2024/02/13 03:23:58;;;;;;;9.25;4.13;;;3.70;99.90;;;;;;5009003;28;20039;-64
2024/02/13 03:26:24;;;;;;;7.32;4.68;;;3.70;99.90;;;;;;5046497;28;20032;-63
2024/02/13 03:28:49;;;;;;;6.45;4.38;;;3.70;99.90;;;;;;5024926;28;20540;-63
2024/02/13 03:31:15;;;;;;;5.80;3.60;;;3.70;99.90;;;;;;5004589;28;20102;-63
2024/02/13 03:33:41;;;;;;;5.07;3.50;;;3.70;99.90;;;;;;5025538;28;20575;-63
2024/02/13 03:36:07;;;;;;;5.72;3.60;;;3.70;99.90;;;;;;5004802;28;20078;-64
2024/02/13 03:38:32;;;;;;;6.65;3.33;;;3.70;99.90;;;;;;5045382;28;20089;-66
2024/02/13 03:40:59;;;;;;;6.95;4.20;;;3.70;99.90;;;;;;5012587;28;20089;-64
2024/02/13 03:43:25;;;;;;;6.50;3.58;;;3.70;99.90;;;;;;5026453;28;20159;-63
2024/02/13 03:45:51;;;;;;;6.22;3.42;;;3.80;99.90;;;;;;5021997;28;20054;-63
2024/02/13 03:48:16;;;;;;;7.45;3.60;;;3.80;99.90;;;;;;4997499;28;20098;-63
2024/02/13 03:50:42;;;;;;;5.72;3.38;;;3.80;99.90;;;;;;4997790;28;20107;-63
2024/02/13 03:53:08;;;;;;;7.05;3.67;;;3.80;99.90;;;;;;5032989;28;20173;-63
2024/02/13 03:55:33;;;;;;;11.52;4.03;;;3.80;99.90;;;;;;5020994;28;20070;-63
2024/02/13 03:57:59;;;;;;;10.05;3.17;;;3.80;99.90;;;;;;5020865;28;20028;-63
2024/02/13 04:00:25;;;;;;;8.00;3.35;;;3.70;99.90;;;;;;4995664;28;20115;-64
2024/02/13 04:02:51;;;;;;;10.25;3.95;;;3.70;99.90;;;;;;4995661;28;20028;-63
2024/02/13 04:05:16;;;;;;;7.57;3.72;;;3.70;99.90;;;;;;5029790;28;20629;-64
2024/02/13 04:07:43;;;;;;;8.02;3.78;;;3.60;99.90;;;;;;5018905;28;20493;-62
2024/02/13 04:10:09;;;;;;;5.88;3.90;;;3.60;99.90;;;;;;5014774;28;20021;-63
2024/02/13 04:12:34;;;;;;;5.03;3.45;;;3.60;99.90;;;;;;5014789;28;20028;-64
2024/02/13 04:15:00;;;;;;;7.25;3.60;;;3.50;99.90;;;;;;4987908;28;20113;-63
2024/02/13 04:17:25;;;;;;;6.80;3.85;;;3.50;99.90;;;;;;5030098;28;20028;-63
2024/02/13 04:19:52;;;;;;;8.80;4.22;;;3.50;99.90;;;;;;5016583;28;20028;-63
2024/02/13 04:22:18;;;;;;;6.18;3.67;;;3.40;99.90;;;;;;4995646;28;20725;-65
2024/02/13 04:24:44;;;;;;;7.70;3.90;;;3.40;99.90;;;;;;5002440;28;20036;-63
2024/02/13 04:27:09;;;;;;;6.57;4.03;;;3.40;99.90;;;;;;4983550;28;20021;-63
2024/02/13 04:29:35;;;;;;;8.70;3.75;;;3.30;99.90;;;;;;5005198;28;20028;-65
2024/02/13 04:32:01;;;;;;;3.95;3.40;;;3.30;99.90;;;;;;4997264;28;20024;-63
2024/02/13 04:34:27;;;;;;;4.88;3.40;;;3.20;99.90;;;;;;5008778;28;20147;-63
2024/02/13 04:36:53;;;;;;;6.05;3.83;;;3.20;99.90;;;;;;5011627;28;20493;-63
2024/02/13 04:39:18;;;;;;;5.05;3.60;;;3.20;99.90;;;;;;4982148;28;20024;-64
2024/02/13 04:41:44;;;;;;;6.50;3.95;;;3.20;99.90;;;;;;5002891;28;20094;-63
2024/02/13 04:44:11;;;;;;;7.15;3.50;;;3.20;99.90;;;;;;5022865;28;20036;-63
2024/02/13 04:46:39;;;;;;;4.30;3.45;;;3.10;99.90;;;;;;5007708;28;20143;-62
2024/02/13 04:49:05;;;;;;;4.72;4.03;;;3.10;99.90;;;;;;5010460;28;20020;-62
2024/02/13 04:51:31;;;;;;;5.80;3.90;;;3.10;99.90;;;;;;4977925;28;20568;-62
2024/02/13 04:53:56;;;;;;;5.10;3.60;;;3.10;99.90;;;;;;4968481;28;21644;-62
2024/02/13 04:56:22;;;;;;;6.47;3.47;;;3.10;99.90;;;;;;5022317;28;20078;-63
2024/02/13 04:58:48;;;;;;;5.60;3.28;;;3.00;99.90;;;;;;5007701;28;20104;-63
2024/02/13 05:01:14;;;;;;;7.25;4.20;;;3.00;99.90;;;;;;4968598;28;20024;-65
2024/02/13 05:09:00;;;;;;;8.32;4.10;;;3.00;99.90;;;;;;4967723;28;20071;-64
2024/02/13 05:11:26;;;;;;;11.75;4.53;;;3.00;99.90;;;;;;5013630;28;20107;-64
2024/02/13 05:13:52;;;;;;;9.95;4.05;;;3.00;99.90;;;;;;5003667;28;20016;-66
2024/02/13 05:16:18;;;;;;;7.93;4.53;;;3.00;99.90;;;;;;4976271;28;20028;-66
2024/02/13 05:18:47;;;;;;;7.75;4.93;;;3.00;99.90;;;;;;5018885;28;20021;-65
2024/02/13 05:21:14;;;;;;;9.25;4.47;;;2.90;99.90;;;;;;4967478;28;20095;-64
2024/02/13 05:23:40;;;;;;;7.95;4.22;;;2.90;99.90;;;;;;4983889;28;20395;-67
2024/02/13 05:26:11;;;;;;;9.57;5.32;;;2.90;99.90;;;;;;5007878;28;20028;-64
2024/02/13 05:28:37;;;;;;;9.77;4.78;;;2.90;99.90;;;;;;5004370;28;20032;-65
2024/02/13 05:31:05;;;;;;;12.30;4.95;;;2.90;99.90;;;;;;4992872;28;20025;-65
2024/02/13 05:33:32;;;;;;;6.50;5.05;;;2.90;99.90;;;;;;4978636;28;20025;-64
2024/02/13 05:35:57;;;;;;;7.18;4.90;;;2.90;99.90;;;;;;4967133;28;21852;-65
2024/02/13 05:38:23;;;;;;;12.32;5.68;;;3.00;99.90;;;;;;5018249;28;20028;-65
2024/02/13 05:40:49;;;;;;;11.52;5.80;;;2.90;99.90;;;;;;5002396;28;20039;-65
2024/02/13 05:43:15;;;;;;;8.88;5.38;;;2.90;99.90;;;;;;4959565;28;20028;-66
2024/02/13 05:45:40;;;;;;;10.88;5.65;;;2.90;99.90;;;;;;4990984;28;20029;-65
2024/02/13 05:48:13;;;;;;;7.72;5.38;;;2.80;99.90;;;;;;4966241;22;20124;-47
2024/02/13 05:50:39;;;;;;;8.90;6.20;;;2.80;99.90;;;;;;4945547;28;20017;-55
2024/02/13 05:53:06;;;;;;;12.48;6.32;;;2.80;99.90;;;;;;4949391;28;20028;-48
2024/02/13 05:55:32;;;;;;;10.43;5.70;;;2.70;99.90;;;;;;4959744;28;21499;-49
2024/02/13 05:57:58;;;;;;;8.45;5.75;;;2.70;99.90;;;;;;4952824;28;20104;-47
2024/02/13 06:00:25;;;;;;;11.85;6.13;;;2.70;99.90;;;;;;4934224;28;20024;-47
2024/02/13 06:02:55;;;;;;;10.68;6.20;;;2.70;99.90;;;;;;4914862;28;20029;-47
2024/02/13 06:05:24;;;;;;;12.73;6.43;;;2.70;99.90;;;;;;4975506;28;20017;-50
2024/02/13 06:07:50;;;;;;;15.23;6.80;;;2.70;99.90;;;;;;4955691;28;20031;-48
2024/02/13 06:10:16;;;;;;;11.88;7.13;;;2.70;99.90;;;;;;4935715;28;20053;-51
2024/02/13 06:12:43;;;;;;;8.88;6.25;;;2.60;99.90;;;;;;4943977;28;20041;-50
2024/02/13 06:15:09;;;;;;;14.00;6.78;;;2.60;99.90;;;;;;4942702;28;20109;-49
2024/02/13 06:17:35;;;;;;;11.85;6.78;;;2.60;99.90;;;;;;4963643;28;20033;-56
2024/02/13 06:20:05;;;;;;;16.52;8.55;;;2.60;99.90;;;;;;4924920;28;20708;-49
2024/02/13 06:22:34;;;;;;;12.30;9.15;;;2.60;99.90;;;;;;4948140;28;21488;-48
2024/02/13 06:25:04;;;;;;;66.82;33.25;;;2.60;99.90;;;;;;4959801;28;20025;-46
2024/02/13 06:27:34;;;;;;;22.33;15.35;;;2.60;99.90;;;;;;4937713;28;20637;-48
2024/02/13 06:30:01;;;;;;;17.13;10.70;;;2.60;99.90;;;;;;4901826;28;20033;-46
2024/02/13 06:32:27;;;;;;;19.90;14.18;;;2.70;99.90;;;;;;4977473;28;20031;-49
2024/02/13 06:34:54;;;;;;;16.60;11.82;;;2.60;99.90;;;;;;4941292;28;20033;-56
2024/02/13 06:37:21;;;;;;;17.50;11.57;;;2.60;99.90;;;;;;4938387;28;20029;-47
2024/02/13 06:39:47;;;;;;;18.25;10.75;;;2.60;99.90;;;;;;4963221;28;20025;-49
2024/02/13 06:42:12;;;;;;;20.20;12.30;;;2.60;99.90;;;;;;4910118;28;20049;-51
2024/02/13 06:44:39;;;;;;;22.50;12.95;;;2.60;99.90;;;;;;4963776;28;20141;-56
2024/02/13 06:47:08;;;;;;;17.33;11.65;;;2.60;99.90;;;;;;4942312;28;20041;-50
2024/02/13 06:49:37;;;;;;;18.10;10.52;;;2.70;99.90;;;;;;4962218;28;21207;-50
2024/02/13 06:52:06;;;;;;;16.00;10.32;;;2.70;99.90;;;;;;4972947;28;20046;-47
2024/02/13 06:54:31;;;;;;;14.82;9.32;;;2.70;99.90;;;;;;4941253;28;20089;-51
2024/02/13 06:56:57;;;;;;;12.35;9.10;;;2.80;99.90;;;;;;4954552;28;21748;-46
2024/02/13 06:59:23;;;;;;;15.32;9.85;;;2.80;99.90;;;;;;4978611;28;20171;-51
2024/02/13 07:01:49;;;;;;;15.48;10.45;;;2.80;99.90;;;;;;4958504;28;20032;-46
2024/02/13 07:04:15;;;;;;;18.50;11.43;;;2.70;99.90;;;;;;4954570;28;20032;-55
2024/02/13 07:06:41;;;;;;;13.98;10.15;;;2.80;99.90;;;;;;4952554;28;20078;-49
2024/02/13 07:09:06;;;;;;;19.83;12.40;;;2.80;99.90;;;;;;4880960;28;20033;-49
2024/02/13 07:11:32;;;;;;;18.38;11.77;;;2.80;99.90;;;;;;4965054;28;20049;-49
2024/02/13 07:13:59;;;;;;;20.67;11.02;;;2.80;99.90;;;;;;4927605;28;20098;-48
2024/02/13 07:16:25;;;;;;;18.85;10.00;;;2.80;99.90;;;;;;4951173;28;20111;-46
2024/02/13 07:18:50;;;;;;;15.93;10.00;;;2.80;99.90;;;;;;4978169;28;20380;-48
2024/02/13 07:21:16;;;;;;;17.85;10.60;;;2.80;99.90;;;;;;4926620;28;20028;-52
2024/02/13 07:23:41;;;;;;;15.18;10.10;;;2.80;99.90;;;;;;4929892;28;20485;-56
2024/02/13 07:26:11;;;;;;;18.00;10.43;;;2.80;99.90;;;;;;4922831;28;20213;-47
2024/02/13 07:28:37;;;;;;;16.38;10.48;;;2.80;99.90;;;;;;4954734;28;21885;-48
2024/02/13 07:31:03;;;;;;;23.83;11.52;;;2.90;99.90;;;;;;4966701;28;20109;-45
2024/02/13 07:33:29;;;;;;;17.77;10.82;;;2.90;99.90;;;;;;4890974;28;20684;-49
2024/02/13 07:35:55;;;;;;;21.08;10.98;;;2.90;99.90;;;;;;4927109;28;21648;-49
2024/02/13 07:38:23;;;;;;;17.95;11.45;;;3.00;99.90;;;;;;4967499;28;21005;-46
2024/02/13 07:40:49;;;;;;;20.20;12.07;;;3.10;99.90;;;;;;4949368;28;20020;-49
2024/02/13 07:43:15;;;;;;;23.23;12.75;;;3.20;99.90;;;;;;4960078;28;20523;-56
2024/02/13 07:45:41;;;;;;;21.80;12.07;;;3.30;99.90;;;;;;5004957;28;20032;-45
2024/02/13 07:48:10;;;;;;;18.33;12.20;;;3.30;99.90;;;;;;4961825;28;20024;-47
2024/02/13 07:50:37;;;;;;;19.48;12.85;;;3.40;99.90;;;;;;4990371;28;20512;-48
2024/02/13 07:53:04;;;;;;;23.48;13.10;;;3.50;99.90;;;;;;4959349;28;20048;-48
2024/02/13 07:55:30;;;;;;;23.80;13.20;;;3.50;99.90;;;;;;5010731;28;22118;-47
2024/02/13 07:57:56;;;;;;;19.10;12.55;;;3.60;99.90;;;;;;5027623;28;20506;-47
2024/02/13 08:00:23;;;;;;;23.85;13.98;;;3.60;99.90;;;;;;4954648;28;20024;-51
2024/02/13 08:02:51;;;;;;;26.23;14.57;;;3.60;99.90;;;;;;4975332;28;20028;-46
2024/02/13 08:05:16;;;;;;;21.67;14.07;;;3.60;99.90;;;;;;4986478;28;20081;-48
2024/02/13 08:07:42;;;;;;;24.00;14.05;;;3.60;99.90;;;;;;5016215;28;20032;-46
2024/02/13 08:10:11;;;;;;;27.92;14.65;;;3.70;99.90;;;;;;5030799;28;20103;-49
2024/02/13 08:12:36;;;;;;;24.45;15.68;;;3.70;99.90;;;;;;5013738;28;20021;-50
2024/02/13 08:15:03;;;;;;;24.77;14.07;;;3.80;99.90;;;;;;5002426;28;20526;-48
2024/02/13 08:17:29;;;;;;;26.63;16.10;;;3.80;99.90;;;;;;4973665;28;20027;-51
2024/02/13 08:19:56;;;;;;;27.15;16.23;;;3.80;99.90;;;;;;5031483;28;20059;-52
2024/02/13 08:22:22;;;;;;;19.83;14.43;;;3.80;99.90;;;;;;5011071;28;20112;-45
2024/02/13 08:24:48;;;;;;;24.98;14.48;;;3.90;99.90;;;;;;5013326;28;20040;-48
2024/02/13 08:27:18;;;;;;;32.45;16.17;;;3.90;99.90;;;;;;5026051;28;20028;-49
2024/02/13 08:29:44;;;;;;;20.25;14.90;;;3.90;99.90;;;;;;5004326;28;20111;-46
2024/02/13 08:32:09;;;;;;;23.50;14.75;;;4.00;99.90;;;;;;4996841;28;20166;-46
2024/02/13 08:34:35;;;;;;;20.55;13.63;;;4.10;99.90;;;;;;5017928;28;20419;-48
2024/02/13 08:37:00;;;;;;;20.83;14.45;;;4.10;99.90;;;;;;4983239;28;20066;-48
2024/02/13 08:39:26;;;;;;;24.02;15.60;;;4.10;99.90;;;;;;4997940;28;20021;-45
2024/02/13 08:41:52;;;;;;;22.08;14.23;;;4.10;99.90;;;;;;4971922;28;20060;-50
2024/02/13 08:44:18;;;;;;;19.10;13.27;;;4.20;99.90;;;;;;4986309;28;22069;-48
2024/02/13 08:46:44;;;;;;;23.25;13.88;;;4.20;99.90;;;;;;5021987;28;20500;-48
2024/02/13 08:49:11;;;;;;;19.70;13.60;;;4.30;99.90;;;;;;4987767;28;20025;-56
2024/02/13 08:51:37;;;;;;;23.58;14.35;;;4.40;99.90;;;;;;4951851;28;20032;-46
2024/02/13 08:54:03;;;;;;;22.27;13.35;;;4.40;99.90;;;;;;5004029;28;20086;-51
2024/02/13 08:56:28;;;;;;;20.33;13.40;;;4.40;99.90;;;;;;5006804;28;20070;-46
2024/02/13 08:58:54;;;;;;;21.13;13.77;;;4.50;99.90;;;;;;5006262;28;20017;-54
2024/02/13 09:01:20;;;;;;;23.27;14.45;;;4.50;99.90;;;;;;4948489;28;20453;-51
2024/02/13 09:03:47;;;;;;;20.13;14.05;;;4.60;99.90;;;;;;5027803;28;20020;-47
2024/02/13 09:06:13;;;;;;;18.27;13.38;;;4.60;99.90;;;;;;5002318;28;20036;-46
2024/02/13 09:08:41;;;;;;;19.13;12.32;;;4.60;99.90;;;;;;4918883;28;20027;-47
2024/02/13 09:11:08;;;;;;;22.98;14.13;;;4.70;99.90;;;;;;4985675;28;20568;-50
2024/02/13 09:13:34;;;;;;;16.85;12.38;;;4.70;99.90;;;;;;5009311;28;21646;-50
2024/02/13 09:16:00;;;;;;;18.13;12.40;;;4.70;99.90;;;;;;5005563;28;20025;-47
2024/02/13 09:18:25;;;;;;;17.65;12.32;;;4.80;99.90;;;;;;4982450;28;20029;-46
2024/02/13 09:20:51;;;;;;;21.33;12.52;;;4.80;99.90;;;;;;4991372;28;20025;-48
2024/02/13 09:23:20;;;;;;;18.95;11.57;;;4.90;99.90;;;;;;4948608;28;21573;-46
2024/02/13 09:25:49;;;;;;;18.17;11.52;;;4.90;99.90;;;;;;4981660;28;20163;-47
2024/02/13 09:28:18;;;;;;;17.05;11.60;;;4.90;99.90;;;;;;5000978;28;20060;-52
2024/02/13 09:30:47;;;;;;;23.00;12.20;;;5.00;99.90;;;;;;4974209;28;20448;-49
2024/02/13 09:33:14;;;;;;;18.35;12.02;;;5.00;99.90;;;;;;4977231;28;20029;-45
2024/02/13 09:35:39;;;;;;;19.17;11.65;;;5.00;99.90;;;;;;4964268;28;20100;-46
2024/02/13 09:38:06;;;;;;;17.50;11.07;;;5.00;99.90;;;;;;4966744;28;20033;-46
2024/02/13 09:40:33;;;;;;;19.27;11.32;;;5.00;99.90;;;;;;4981859;28;22751;-47
2024/02/13 09:42:58;;;;;;;22.63;12.10;;;5.00;99.90;;;;;;4994108;28;20035;-50
2024/02/13 09:45:26;;;;;;;22.27;11.38;;;5.00;99.90;;;;;;4988863;28;20020;-48
2024/02/13 09:47:52;;;;;;;15.73;11.65;;;5.00;99.90;;;;;;5001093;28;20112;-49
2024/02/13 09:50:18;;;;;;;22.00;13.02;;;5.00;99.90;;;;;;4970106;28;20407;-46
2024/02/13 09:52:49;;;;;;;17.70;11.77;;;5.10;99.90;;;;;;4977799;28;20616;-48
2024/02/13 09:55:15;;;;;;;18.98;11.95;;;5.10;99.90;;;;;;4995616;28;20054;-51
2024/02/13 09:57:41;;;;;;;21.35;13.20;;;5.10;99.90;;;;;;5007013;28;20028;-47
2024/02/13 10:00:16;;;;;;;21.55;13.20;;;5.10;99.90;;;;;;4952401;28;20579;-46
2024/02/13 10:02:42;;;;;;;29.83;14.75;;;5.20;99.90;;;;;;4969516;28;20028;-49
2024/02/13 10:05:09;;;;;;;21.60;12.77;;;5.20;99.90;;;;;;4969271;28;20020;-49
2024/02/13 10:07:37;;;;;;;18.52;12.32;;;5.20;99.90;;;;;;4967104;28;21615;-46
2024/02/13 10:10:04;;;;;;;24.70;15.60;;;5.30;99.90;;;;;;5027763;28;20546;-48
2024/02/13 10:12:30;;;;;;;25.20;15.00;;;5.30;99.90;;;;;;4980765;28;20071;-46
2024/02/13 10:14:58;;;;;;;22.60;14.30;;;5.40;99.90;;;;;;4937182;28;20062;-48
2024/02/13 10:17:23;;;;;;;20.45;13.00;;;5.50;99.90;;;;;;4976902;28;20086;-48
2024/02/13 10:19:49;;;;;;;23.55;16.02;;;5.50;99.90;;;;;;4973659;28;20040;-49
2024/02/13 10:22:16;;;;;;;20.90;14.32;;;5.50;99.90;;;;;;4971739;28;20036;-55
2024/02/13 10:24:47;;;;;;;23.00;13.90;;;5.50;99.90;;;;;;5004483;28;20020;-46
2024/02/13 10:27:14;;;;;;;16.23;12.02;;;5.60;99.90;;;;;;4989805;28;22114;-45
2024/02/13 10:29:45;;;;;;;14.15;10.50;;;5.60;99.90;;;;;;4970677;28;20496;-47
2024/02/13 10:32:11;;;;;;;17.95;11.90;;;5.70;99.90;;;;;;4872912;28;20063;-48
2024/02/13 10:34:37;;;;;;;22.85;12.77;;;5.70;99.90;;;;;;4961268;28;22113;-46
2024/02/13 10:37:08;;;;;;;15.90;10.70;;;5.70;99.90;;;;;;5022246;28;20032;-47
2024/02/13 10:39:36;;;;;;;15.20;11.00;;;5.70;99.90;;;;;;4984706;28;20033;-55
2024/02/13 10:42:08;;;;;;;15.98;10.13;;;5.80;99.90;;;;;;4949117;28;20074;-48
2024/02/13 10:44:41;;;;;;;21.83;12.15;;;5.80;99.90;;;;;;4973833;28;20434;-49
2024/02/13 10:47:10;;;;;;;17.38;11.27;;;5.90;99.90;;;;;;4935231;28;20428;-48
2024/02/13 10:49:45;;;;;;;17.35;10.90;;;5.90;99.90;;;;;;4958644;28;21630;-48
2024/02/13 10:52:13;;;;;;;20.00;12.77;;;5.90;99.90;;;;;;5017129;28;20031;-55
2024/02/13 10:54:45;;;;;;;16.48;11.13;;;5.90;99.90;;;;;;4970801;28;20028;-53
2024/02/13 10:57:13;;;;;;;16.08;11.63;;;6.00;99.90;;;;;;4978527;28;20481;-50
2024/02/13 10:59:41;;;;;;;17.83;11.40;;;5.90;99.90;;;;;;4931498;28;20221;-49
2024/02/13 11:02:07;;;;;;;14.60;10.52;;;5.90;99.90;;;;;;4948006;28;20661;-48
2024/02/13 11:04:34;;;;;;;17.63;11.48;;;5.90;99.90;;;;;;4961469;28;21518;-47
2024/02/13 11:07:01;;;;;;;16.20;10.45;;;5.90;99.90;;;;;;5013498;28;20079;-48
2024/02/13 11:09:28;;;;;;;14.13;10.20;;;5.80;99.90;;;;;;4992082;28;20029;-49
2024/02/13 11:11:54;;;;;;;21.85;12.02;;;5.80;99.90;;;;;;5028878;28;20036;-47
2024/02/13 11:14:23;;;;;;;15.88;10.75;;;5.80;99.90;;;;;;5026047;28;20024;-46
2024/02/13 11:16:57;;;;;;;17.20;10.15;;;5.80;99.90;;;;;;5022932;28;20031;-47
2024/02/13 11:19:23;;;;;;;14.98;10.75;;;5.80;99.90;;;;;;4982192;28;20025;-52
2024/02/13 11:21:51;;;;;;;14.52;10.57;;;5.80;99.90;;;;;;5005573;28;20029;-48
2024/02/13 11:24:21;;;;;;;18.55;10.35;;;5.80;99.90;;;;;;5032766;28;20618;-47
2024/02/13 11:26:46;;;;;;;18.20;10.35;;;5.80;99.90;;;;;;5018393;28;20501;-49
2024/02/13 11:29:14;;;;;;;15.95;11.00;;;5.90;99.90;;;;;;4998600;28;20039;-50
2024/02/13 11:31:40;;;;;;;14.88;10.23;;;6.00;99.90;;;;;;5010855;28;20024;-47
2024/02/13 11:34:10;;;;;;;21.23;11.55;;;6.10;99.90;;;;;;5016034;28;20040;-48
2024/02/13 11:36:37;;;;;;;17.50;10.68;;;6.20;99.90;;;;;;5021394;28;20025;-51
2024/02/13 11:39:05;;;;;;;18.55;11.00;;;6.30;99.90;;;;;;5014558;28;20016;-50
2024/02/13 11:41:33;;;;;;;13.73;10.10;;;6.30;99.90;;;;;;5024283;28;20055;-51
2024/02/13 11:44:11;;;;;;;14.68;10.13;;;6.40;99.90;;;;;;5019303;28;20035;-51
2024/02/13 11:46:54;;;;;;;12.90;9.48;;;6.40;99.90;;;;;;4993292;28;20086;-48
2024/02/13 11:49:20;;;;;;;12.88;9.05;;;6.40;99.90;;;;;;5007369;28;20063;-52
2024/02/13 11:51:47;;;;;;;18.83;9.77;;;6.40;99.90;;;;;;4989429;28;20054;-46
2024/02/13 11:54:12;;;;;;;16.73;9.85;;;6.40;99.90;;;;;;5041181;28;21258;-47
2024/02/13 11:56:39;;;;;;;13.88;9.63;;;6.40;99.90;;;;;;5026710;28;20028;-46
2024/02/13 11:59:05;;;;;;;12.75;9.15;;;6.40;99.90;;;;;;5011269;28;20013;-49
2024/02/13 12:01:36;;;;;;;15.00;10.05;;;6.30;99.90;;;;;;4995389;28;20040;-49
2024/02/13 12:04:07;;;;;;;13.43;9.57;;;6.30;99.90;;;;;;4998172;28;20169;-48
2024/02/13 12:06:34;;;;;;;13.98;9.43;;;6.30;99.90;;;;;;5020749;28;20037;-51
2024/02/13 12:09:00;;;;;;;20.02;13.85;;;6.20;99.90;;;;;;4967139;28;20024;-45
2024/02/13 12:11:28;;;;;;;25.92;16.85;;;6.20;99.90;;;;;;5008173;28;20028;-50
2024/02/13 12:13:55;;;;;;;18.13;11.77;;;6.10;99.90;;;;;;4999649;28;20597;-49
2024/02/13 12:16:22;;;;;;;21.05;12.82;;;6.10;99.90;;;;;;4976822;28;20026;-50
2024/02/13 12:18:49;;;;;;;20.60;15.50;;;6.10;99.90;;;;;;4980257;28;20439;-48
2024/02/13 12:21:15;;;;;;;15.38;11.95;;;6.10;99.90;;;;;;5024246;28;22139;-49
2024/02/13 12:23:46;;;;;;;17.20;11.85;;;6.10;99.90;;;;;;4987251;28;20024;-50
2024/02/13 12:26:15;;;;;;;19.35;12.43;;;6.10;99.90;;;;;;4992116;28;20020;-52
2024/02/13 12:28:42;;;;;;;13.32;10.18;;;6.10;99.90;;;;;;4992824;28;20069;-50
2024/02/13 12:31:09;;;;;;;18.20;12.15;;;6.10;99.90;;;;;;4970014;28;20024;-47
2024/02/13 12:33:36;;;;;;;20.40;13.30;;;6.10;99.90;;;;;;5007631;28;20032;-53
2024/02/13 12:36:08;;;;;;;17.05;12.50;;;6.10;99.90;;;;;;4982462;28;20029;-52
2024/02/13 12:38:38;;;;;;;21.15;11.45;;;6.10;99.90;;;;;;4999352;28;20516;-48
2024/02/13 12:41:04;;;;;;;18.73;11.55;;;6.10;99.90;;;;;;5001242;28;20024;-49
2024/02/13 12:43:30;;;;;;;20.50;12.43;;;6.10;99.90;;;;;;4990518;28;20102;-49
2024/02/13 12:46:03;;;;;;;25.25;14.07;;;6.10;99.90;;;;;;4965881;28;21743;-50
2024/02/13 12:48:35;;;;;;;20.13;13.15;;;6.10;99.90;;;;;;5013104;28;20043;-48